Time;durP1;ratioP1;P1;durP2;ratioP2;P2;SDS_P1;SDS_P2;PMS_P1;PMS_P2;Temp;Humidity;BMP_temperature;BMP_pressure;BME280_temperature;BME280_humidity;BME280_pressure;Samples;Min_cycle;Max_cycle;Signal;HPM_P1;HPM_P2
2023/02/21 02:15:44;;;;;;;32.87;17.37;;;;;;;;;;5002463;28;20997;-91
2023/02/21 02:18:10;;;;;;;33.53;19.20;;;;;;;;;;4995578;28;20494;-92
2023/02/21 02:20:55;;;;;;;38.70;24.37;;;;;;;;;;4992257;28;20494;-91
2023/02/21 02:23:34;;;;;;;37.53;20.07;;;;;;;;;;5016500;28;20435;-92
2023/02/21 02:26:15;;;;;;;38.42;20.40;;;;;;;;;;5016506;28;20596;-91
2023/02/21 02:28:44;;;;;;;33.70;20.03;;;;;;;;;;5003353;28;20322;-91
2023/02/21 02:31:32;;;;;;;35.93;21.30;;;;;;;;;;5004486;28;20456;-92
2023/02/21 02:33:58;;;;;;;32.97;19.50;;;;;;;;;;4993804;28;20424;-93
2023/02/21 02:36:27;;;;;;;32.10;19.13;;;;;;;;;;4987406;28;20530;-92
2023/02/21 02:39:08;;;;;;;30.23;17.17;;;;;;;;;;4990267;28;20640;-92
2023/02/21 02:41:34;;;;;;;39.83;22.40;;;;;;;;;;4987838;28;20454;-95
2023/02/21 02:44:21;;;;;;;35.20;21.57;;;;;;;;;;4996533;28;20518;-92
2023/02/21 02:46:48;;;;;;;41.53;22.20;;;;;;;;;;4995302;28;20532;-91
2023/02/21 02:49:17;;;;;;;41.93;22.97;;;;;;;;;;4998004;28;20427;-91
2023/02/21 02:51:46;;;;;;;33.83;21.40;;;;;;;;;;4996923;28;20659;-92
2023/02/21 02:54:12;;;;;;;40.10;22.27;;;;;;;;;;4998506;28;20466;-92
2023/02/21 02:56:38;;;;;;;39.37;21.83;;;;;;;;;;4995450;28;20551;-93
2023/02/21 02:59:04;;;;;;;41.17;23.37;;;;;;;;;;4991386;28;20483;-92
2023/02/21 03:01:39;;;;;;;38.37;19.63;;;;;;;;;;4998965;28;20459;-93
2023/02/21 03:04:14;;;;;;;32.73;20.73;;;;;;;;;;4999385;28;20947;-94
2023/02/21 03:06:46;;;;;;;39.90;23.90;;;;;;;;;;5010542;28;20511;-91
2023/02/21 03:09:18;;;;;;;40.97;24.57;;;;;;;;;;5018636;28;20887;-91
2023/02/21 03:12:02;;;;;;;37.47;21.43;;;;;;;;;;5022074;28;20447;-91
2023/02/21 03:14:31;;;;;;;30.80;19.80;;;;;;;;;;5008499;28;20822;-92
2023/02/21 03:17:00;;;;;;;35.00;20.40;;;;;;;;;;5000279;28;20818;-93
2023/02/21 03:19:28;;;;;;;31.80;20.60;;;;;;;;;;4995754;28;20435;-92
2023/02/21 03:21:54;;;;;;;33.83;21.30;;;;;;;;;;4999435;28;20451;-91
2023/02/21 03:24:20;;;;;;;35.93;21.23;;;;;;;;;;5016345;28;20554;-92
2023/02/21 03:26:54;;;;;;;33.27;20.60;;;;;;;;;;4996213;28;20986;-92
2023/02/21 03:29:20;;;;;;;33.00;20.67;;;;;;;;;;4994246;28;20812;-92
2023/02/21 03:31:54;;;;;;;34.10;22.03;;;;;;;;;;4996290;28;20552;-92
2023/02/21 03:34:20;;;;;;;39.87;22.73;;;;;;;;;;4997327;28;21067;-91
2023/02/21 03:36:47;;;;;;;34.60;19.50;;;;;;;;;;4991827;28;20606;-90
2023/02/21 03:39:13;;;;;;;36.37;21.40;;;;;;;;;;4996102;28;20518;-91
2023/02/21 03:41:39;;;;;;;36.13;19.97;;;;;;;;;;4991428;28;20450;-92
2023/02/21 03:44:05;;;;;;;34.00;21.67;;;;;;;;;;4988567;28;21310;-91
2023/02/21 03:46:31;;;;;;;41.00;22.97;;;;;;;;;;4994985;28;20480;-92
2023/02/21 03:48:57;;;;;;;29.47;17.60;;;;;;;;;;4992667;28;20895;-91
2023/02/21 03:51:23;;;;;;;33.00;20.30;;;;;;;;;;4992437;28;20541;-91
2023/02/21 03:53:49;;;;;;;29.73;18.67;;;;;;;;;;4994110;28;21230;-92
2023/02/21 03:56:15;;;;;;;33.17;22.70;;;;;;;;;;4998008;28;20458;-90
2023/02/21 03:58:41;;;;;;;37.50;21.37;;;;;;;;;;4994413;28;20473;-92
2023/02/21 04:01:07;;;;;;;35.63;21.30;;;;;;;;;;4988513;28;20555;-92
2023/02/21 04:03:33;;;;;;;31.90;21.80;;;;;;;;;;4994241;28;20797;-92
2023/02/21 04:05:59;;;;;;;29.90;19.00;;;;;;;;;;4990068;28;20453;-92
2023/02/21 04:08:25;;;;;;;31.60;18.97;;;;;;;;;;4993879;28;20534;-94
2023/02/21 04:10:51;;;;;;;35.60;19.80;;;;;;;;;;4994252;28;20514;-91
2023/02/21 04:13:18;;;;;;;29.07;16.70;;;;;;;;;;4992751;28;21021;-92
2023/02/21 04:15:44;;;;;;;35.03;20.90;;;;;;;;;;4994844;28;20886;-91
2023/02/21 04:18:10;;;;;;;32.53;20.47;;;;;;;;;;4998450;28;20471;-91
2023/02/21 04:20:36;;;;;;;33.50;21.00;;;;;;;;;;5005829;28;20969;-93
2023/02/21 04:23:02;;;;;;;33.00;18.73;;;;;;;;;;5017080;28;20447;-91
2023/02/21 04:25:28;;;;;;;31.30;19.50;;;;;;;;;;4989079;28;20450;-91
2023/02/21 04:27:57;;;;;;;28.03;17.63;;;;;;;;;;5006984;28;20464;-92
2023/02/21 04:30:23;;;;;;;31.90;20.03;;;;;;;;;;4991243;28;20459;-91
2023/02/21 04:32:49;;;;;;;36.50;22.30;;;;;;;;;;4991051;28;20464;-91
2023/02/21 04:35:16;;;;;;;42.87;21.87;;;;;;;;;;4983841;28;21082;-89
2023/02/21 04:37:43;;;;;;;37.23;22.50;;;;;;;;;;4994661;28;20522;-91
2023/02/21 04:40:10;;;;;;;33.57;22.13;;;;;;;;;;4989796;28;20454;-91
2023/02/21 04:42:36;;;;;;;33.60;20.80;;;;;;;;;;4989118;28;20987;-90
2023/02/21 04:45:04;;;;;;;33.77;21.60;;;;;;;;;;4991433;28;20450;-91
2023/02/21 04:47:30;;;;;;;40.83;23.67;;;;;;;;;;4994295;28;20503;-91
2023/02/21 04:49:56;;;;;;;38.67;22.03;;;;;;;;;;4993977;28;20447;-91
2023/02/21 04:52:24;;;;;;;34.53;20.93;;;;;;;;;;5004838;28;20447;-92
2023/02/21 04:54:50;;;;;;;37.67;22.67;;;;;;;;;;5011683;28;20446;-92
2023/02/21 04:57:32;;;;;;;40.70;23.33;;;;;;;;;;5011493;28;20467;-92
2023/02/21 04:59:59;;;;;;;38.40;22.30;;;;;;;;;;5015503;28;20426;-92
2023/02/21 05:02:27;;;;;;;41.37;21.07;;;;;;;;;;5005728;28;20439;-92
2023/02/21 05:04:53;;;;;;;43.27;23.93;;;;;;;;;;5003127;28;20454;-93
2023/02/21 05:07:21;;;;;;;41.27;22.63;;;;;;;;;;5007001;28;20454;-92
2023/02/21 05:09:55;;;;;;;45.30;26.30;;;;;;;;;;5009624;28;20529;-89
2023/02/21 05:12:21;;;;;;;43.00;22.95;;;;;;;;;;5001932;28;20475;-93
2023/02/21 05:14:47;;;;;;;49.07;24.50;;;;;;;;;;4997722;28;20269;-93
2023/02/21 05:17:16;;;;;;;41.70;24.13;;;;;;;;;;4993097;28;20470;-92
2023/02/21 05:20:02;;;;;;;43.55;22.75;;;;;;;;;;5022748;28;20465;-93
2023/02/21 05:22:30;;;;;;;47.10;24.20;;;;;;;;;;4996776;28;20197;-93
2023/02/21 05:24:57;;;;;;;41.60;23.33;;;;;;;;;;5002702;28;20541;-91
2023/02/21 05:27:23;;;;;;;44.13;22.50;;;;;;;;;;5030268;28;20196;-94
2023/02/21 05:29:53;;;;;;;41.87;23.37;;;;;;;;;;5017015;28;20480;-93
2023/02/21 05:32:23;;;;;;;53.33;25.23;;;;;;;;;;5004199;28;20445;-93
2023/02/21 05:34:49;;;;;;;51.67;25.43;;;;;;;;;;5016522;28;20451;-93
2023/02/21 05:37:15;;;;;;;52.30;25.77;;;;;;;;;;5017000;28;20472;-91
2023/02/21 05:39:41;;;;;;;52.27;24.50;;;;;;;;;;5011446;28;20444;-91
2023/02/21 05:42:10;;;;;;;54.17;27.40;;;;;;;;;;5033569;28;20435;-93
2023/02/21 05:44:36;;;;;;;56.30;28.30;;;;;;;;;;5014520;28;20462;-88
2023/02/21 05:47:10;;;;;;;59.50;28.00;;;;;;;;;;5015546;28;20438;-92
2023/02/21 05:49:36;;;;;;;59.30;28.77;;;;;;;;;;5018090;28;20431;-92
2023/02/21 05:52:04;;;;;;;49.40;25.80;;;;;;;;;;5011276;28;20517;-94
2023/02/21 05:54:33;;;;;;;49.93;25.20;;;;;;;;;;5013087;28;20458;-92
2023/02/21 05:57:01;;;;;;;56.23;25.20;;;;;;;;;;5004867;28;20474;-93
2023/02/21 05:59:28;;;;;;;59.38;26.88;;;;;;;;;;5007647;28;20497;-92
2023/02/21 06:01:56;;;;;;;52.67;25.03;;;;;;;;;;5001252;28;20702;-93
2023/02/21 06:04:22;;;;;;;55.43;26.93;;;;;;;;;;5005950;28;20494;-93
2023/02/21 06:06:51;;;;;;;49.87;27.57;;;;;;;;;;4996237;28;20479;-93
2023/02/21 06:09:18;;;;;;;54.53;27.50;;;;;;;;;;5020158;28;20429;-93
2023/02/21 06:11:44;;;;;;;56.00;28.57;;;;;;;;;;5011169;28;20535;-93
2023/02/21 06:14:17;;;;;;;49.73;24.80;;;;;;;;;;5005386;28;20472;-93
2023/02/21 06:16:46;;;;;;;51.27;26.07;;;;;;;;;;5021916;28;20479;-93
2023/02/21 06:19:12;;;;;;;49.77;26.20;;;;;;;;;;5023826;28;20523;-94
2023/02/21 06:21:40;;;;;;;53.20;26.53;;;;;;;;;;5069445;23;20821;-82
2023/02/21 06:24:07;;;;;;;54.80;26.87;;;;;;;;;;4980506;28;20456;-84
2023/02/21 06:26:33;;;;;;;55.97;27.80;;;;;;;;;;4971612;28;20473;-83
2023/02/21 06:29:02;;;;;;;55.03;25.77;;;;;;;;;;4974125;28;20441;-83
2023/02/21 06:31:28;;;;;;;54.60;25.17;;;;;;;;;;4970970;28;20472;-86
2023/02/21 06:33:54;;;;;;;48.53;26.80;;;;;;;;;;4981120;28;20481;-84
2023/02/21 06:36:22;;;;;;;55.93;27.37;;;;;;;;;;4990073;23;20503;-92
2023/02/21 06:38:52;;;;;;;53.73;26.47;;;;;;;;;;4962946;28;20479;-91
2023/02/21 06:41:19;;;;;;;49.23;25.73;;;;;;;;;;4955946;28;21286;-89
2023/02/21 06:43:45;;;;;;;48.80;22.80;;;;;;;;;;4963616;28;20981;-92
2023/02/21 06:46:15;;;;;;;50.70;24.57;;;;;;;;;;4944913;28;20457;-92
2023/02/21 06:48:41;;;;;;;49.77;26.13;;;;;;;;;;4967616;28;20449;-88
2023/02/21 06:51:10;;;;;;;59.37;27.27;;;;;;;;;;4957140;28;20461;-90
2023/02/21 06:53:36;;;;;;;61.10;27.80;;;;;;;;;;4950623;28;20452;-90
2023/02/21 06:56:02;;;;;;;58.40;27.20;;;;;;;;;;4956050;28;20444;-92
2023/02/21 06:58:28;;;;;;;61.00;27.23;;;;;;;;;;4949788;28;20480;-91
2023/02/21 07:00:54;;;;;;;54.97;26.00;;;;;;;;;;4957722;28;20448;-92
2023/02/21 07:03:20;;;;;;;52.73;28.17;;;;;;;;;;4957341;28;20525;-91
2023/02/21 07:05:46;;;;;;;51.10;23.40;;;;;;;;;;4966013;28;20470;-91
2023/02/21 07:08:12;;;;;;;57.40;26.73;;;;;;;;;;4953166;28;21061;-89
2023/02/21 07:10:38;;;;;;;59.90;25.53;;;;;;;;;;4955771;28;20436;-91
2023/02/21 07:13:04;;;;;;;59.60;27.70;;;;;;;;;;4952507;28;20468;-91
2023/02/21 07:15:30;;;;;;;56.80;27.93;;;;;;;;;;4954725;28;20565;-91
2023/02/21 07:17:56;;;;;;;50.13;23.70;;;;;;;;;;4960870;28;20888;-90
2023/02/21 07:20:22;;;;;;;52.00;22.17;;;;;;;;;;4965780;28;20422;-90
2023/02/21 07:22:50;;;;;;;47.60;25.00;;;;;;;;;;4966444;28;20480;-90
2023/02/21 07:25:22;;;;;;;52.80;24.67;;;;;;;;;;4966246;28;20434;-92
2023/02/21 07:27:48;;;;;;;62.13;27.77;;;;;;;;;;4964680;28;20458;-91
2023/02/21 07:30:15;;;;;;;56.07;26.20;;;;;;;;;;4975577;28;21113;-94
2023/02/21 07:32:43;;;;;;;55.40;24.80;;;;;;;;;;4958313;28;20460;-92
2023/02/21 07:35:09;;;;;;;58.03;23.30;;;;;;;;;;4982921;28;20766;-91
2023/02/21 07:40:30;;;;;;;49.93;23.63;;;;;;;;;;4967337;28;20465;-92
2023/02/21 07:42:56;;;;;;;44.23;22.40;;;;;;;;;;4946936;28;20553;-90
2023/02/21 07:45:22;;;;;;;48.73;21.57;;;;;;;;;;4951609;28;20437;-93
2023/02/21 07:47:50;;;;;;;48.13;21.27;;;;;;;;;;4960752;28;20445;-94
2023/02/21 07:50:17;;;;;;;45.83;21.60;;;;;;;;;;4964175;28;20937;-92
2023/02/21 07:52:43;;;;;;;52.80;24.30;;;;;;;;;;4969956;28;20456;-92
2023/02/21 07:55:11;;;;;;;47.20;23.33;;;;;;;;;;4954513;28;20525;-93
2023/02/21 07:57:37;;;;;;;54.87;24.63;;;;;;;;;;4951516;28;20627;-90
2023/02/21 08:00:03;;;;;;;53.28;24.33;;;;;;;;;;4958970;28;20499;-92
2023/02/21 08:02:30;;;;;;;53.50;22.57;;;;;;;;;;4943260;28;20206;-93
2023/02/21 08:04:56;;;;;;;51.03;24.40;;;;;;;;;;4971861;28;20505;-92
2023/02/21 08:07:24;;;;;;;57.80;24.60;;;;;;;;;;4952128;28;20490;-92
2023/02/21 08:09:50;;;;;;;47.90;22.53;;;;;;;;;;4960795;28;20613;-91
2023/02/21 08:12:16;;;;;;;61.75;25.55;;;;;;;;;;4946585;28;20616;-92
2023/02/21 08:14:42;;;;;;;50.87;24.70;;;;;;;;;;4938880;28;20202;-91
2023/02/21 08:17:08;;;;;;;57.30;21.20;;;;;;;;;;4947917;28;21001;-92
2023/02/21 08:19:34;;;;;;;41.77;20.47;;;;;;;;;;4942287;28;20442;-92
2023/02/21 08:22:00;;;;;;;48.00;23.40;;;;;;;;;;4944145;28;20438;-92
2023/02/21 08:24:26;;;;;;;55.37;25.10;;;;;;;;;;4971963;28;20553;-88
2023/02/21 08:26:52;;;;;;;56.50;24.80;;;;;;;;;;4975480;28;20454;-91
2023/02/21 08:29:18;;;;;;;41.80;20.02;;;;;;;;;;4967847;28;20525;-89
2023/02/21 08:31:45;;;;;;;41.45;18.77;;;;;;;;;;4948331;28;20194;-91
2023/02/21 08:34:11;;;;;;;48.97;24.50;;;;;;;;;;4951390;28;20229;-92
2023/02/21 08:36:39;;;;;;;45.97;22.37;;;;;;;;;;4960781;28;21024;-90
2023/02/21 08:39:06;;;;;;;51.60;23.20;;;;;;;;;;4956976;28;20568;-90
2023/02/21 08:41:37;;;;;;;43.80;21.20;;;;;;;;;;4961908;28;20626;-94
2023/02/21 08:44:03;;;;;;;37.67;19.03;;;;;;;;;;4962994;28;21177;-92
2023/02/21 08:46:29;;;;;;;52.63;22.07;;;;;;;;;;4956260;28;20449;-88
2023/02/21 08:48:55;;;;;;;42.93;20.83;;;;;;;;;;4960813;28;20450;-90
2023/02/21 08:51:28;;;;;;;43.83;21.67;;;;;;;;;;4965046;28;20952;-92
2023/02/21 08:53:54;;;;;;;47.13;19.80;;;;;;;;;;4961997;28;20819;-91
2023/02/21 08:56:24;;;;;;;43.50;19.57;;;;;;;;;;4972302;28;20446;-93
2023/02/21 08:58:50;;;;;;;46.67;21.50;;;;;;;;;;4965387;28;20561;-91
2023/02/21 09:01:17;;;;;;;38.33;18.20;;;;;;;;;;4965534;28;20515;-92
2023/02/21 09:03:43;;;;;;;44.22;20.63;;;;;;;;;;4966680;28;20437;-91
2023/02/21 09:06:09;;;;;;;40.50;18.90;;;;;;;;;;4964489;28;20699;-93
2023/02/21 09:08:39;;;;;;;44.25;21.27;;;;;;;;;;4952087;28;20433;-92
2023/02/21 09:11:06;;;;;;;48.63;20.98;;;;;;;;;;4953012;28;20178;-93
2023/02/21 09:13:32;;;;;;;44.30;19.90;;;;;;;;;;4958747;28;20217;-89
2023/02/21 09:15:59;;;;;;;35.20;17.30;;;;;;;;;;4966255;28;20488;-90
2023/02/21 09:18:25;;;;;;;39.50;19.60;;;;;;;;;;4953005;28;20462;-90
2023/02/21 09:20:52;;;;;;;40.03;17.63;;;;;;;;;;4978338;23;20612;-81
2023/02/21 09:23:19;;;;;;;41.00;17.70;;;;;;;;;;4946800;28;20457;-81
2023/02/21 09:25:45;;;;;;;30.37;16.53;;;;;;;;;;4948196;28;20559;-82
2023/02/21 09:28:11;;;;;;;32.87;16.73;;;;;;;;;;4950217;28;20433;-82
2023/02/21 09:30:37;;;;;;;31.47;14.00;;;;;;;;;;4948827;28;20528;-80
2023/02/21 09:33:03;;;;;;;30.43;15.50;;;;;;;;;;4954826;28;20436;-81
2023/02/21 09:35:29;;;;;;;38.27;17.30;;;;;;;;;;4943756;28;20517;-78
2023/02/21 09:37:59;;;;;;;39.00;16.67;;;;;;;;;;4950381;28;20476;-81
2023/02/21 09:40:39;;;;;;;34.43;18.30;;;;;;;;;;4945782;28;20942;-82
2023/02/21 09:43:08;;;;;;;30.93;14.47;;;;;;;;;;4956123;28;20447;-79
2023/02/21 09:45:35;;;;;;;34.97;15.70;;;;;;;;;;4951670;28;20453;-81
2023/02/21 09:48:04;;;;;;;31.80;15.53;;;;;;;;;;4951450;28;20481;-81
2023/02/21 09:50:32;;;;;;;28.73;16.00;;;;;;;;;;4957347;28;20936;-83
2023/02/21 09:52:59;;;;;;;29.70;15.77;;;;;;;;;;4955119;28;20504;-80
2023/02/21 09:55:28;;;;;;;30.50;16.10;;;;;;;;;;4943398;28;20452;-81
2023/02/21 09:57:55;;;;;;;31.43;17.43;;;;;;;;;;4956121;28;20490;-81
2023/02/21 10:00:24;;;;;;;33.73;15.87;;;;;;;;;;4955735;28;21173;-81
2023/02/21 10:03:09;;;;;;;24.63;13.13;;;;;;;;;;4958782;28;20457;-85
2023/02/21 10:05:46;;;;;;;29.83;16.33;;;;;;;;;;4970743;28;20446;-82
2023/02/21 10:08:21;;;;;;;19.40;12.30;;;;;;;;;;4963395;28;20452;-82
2023/02/21 10:10:49;;;;;;;27.47;17.07;;;;;;;;;;4963192;28;20464;-82
2023/02/21 10:13:15;;;;;;;31.70;17.63;;;;;;;;;;4969287;28;20461;-81
2023/02/21 10:15:52;;;;;;;25.50;14.53;;;;;;;;;;4971369;28;20958;-81
2023/02/21 10:18:37;;;;;;;29.60;15.70;;;;;;;;;;4960447;28;20501;-80
2023/02/21 10:21:08;;;;;;;28.63;15.60;;;;;;;;;;4959976;28;20483;-81
2023/02/21 10:23:37;;;;;;;30.03;14.97;;;;;;;;;;4940256;28;20440;-81
2023/02/21 10:26:16;;;;;;;26.43;14.80;;;;;;;;;;4961930;28;20456;-81
2023/02/21 10:28:41;;;;;;;31.60;14.70;;;;;;;;;;4959423;28;20441;-84
2023/02/21 10:31:10;;;;;;;27.60;14.63;;;;;;;;;;4957702;28;20461;-84
2023/02/21 10:33:38;;;;;;;25.93;12.43;;;;;;;;;;4952273;28;20441;-84
2023/02/21 10:36:24;;;;;;;28.67;17.17;;;;;;;;;;4958916;28;20454;-82
2023/02/21 10:38:54;;;;;;;24.80;14.80;;;;;;;;;;4956395;28;20493;-82
2023/02/21 10:41:20;;;;;;;28.93;13.97;;;;;;;;;;4958947;28;20456;-85
2023/02/21 10:43:49;;;;;;;20.10;13.33;;;;;;;;;;4965025;28;20441;-87
2023/02/21 10:46:24;;;;;;;22.00;12.00;;;;;;;;;;4949353;28;21017;-86
2023/02/21 10:48:52;;;;;;;19.87;12.47;;;;;;;;;;4963667;28;20437;-84
2023/02/21 10:51:29;;;;;;;27.13;13.50;;;;;;;;;;4967572;28;20976;-83
2023/02/21 10:54:15;;;;;;;25.63;15.77;;;;;;;;;;4964556;28;20991;-83
2023/02/21 10:56:41;;;;;;;20.63;12.50;;;;;;;;;;4968619;28;20463;-84
2023/02/21 10:59:07;;;;;;;27.60;14.80;;;;;;;;;;4952088;28;20458;-84
2023/02/21 11:01:36;;;;;;;20.00;12.00;;;;;;;;;;4958981;28;20698;-82
2023/02/21 11:04:20;;;;;;;21.03;13.77;;;;;;;;;;4961426;28;20462;-84
2023/02/21 11:06:48;;;;;;;17.60;10.97;;;;;;;;;;4971898;28;20433;-83
2023/02/21 11:09:23;;;;;;;16.47;11.47;;;;;;;;;;4965053;28;20453;-81
2023/02/21 11:11:58;;;;;;;19.47;12.30;;;;;;;;;;4981395;28;20774;-82
2023/02/21 11:14:25;;;;;;;18.97;13.00;;;;;;;;;;4970824;28;20551;-84
2023/02/21 11:17:04;;;;;;;22.40;11.83;;;;;;;;;;4988002;28;20432;-82
2023/02/21 11:19:41;;;;;;;20.10;12.73;;;;;;;;;;4974958;28;20438;-82
2023/02/21 11:22:08;;;;;;;23.40;14.10;;;;;;;;;;4989780;28;20468;-84
2023/02/21 11:24:34;;;;;;;23.00;13.63;;;;;;;;;;4986597;28;20433;-83
2023/02/21 11:27:00;;;;;;;20.00;12.77;;;;;;;;;;4986138;28;20429;-85
2023/02/21 11:29:26;;;;;;;23.30;12.80;;;;;;;;;;4969945;28;20432;-84
2023/02/21 11:31:55;;;;;;;22.97;13.87;;;;;;;;;;4996568;28;20457;-84
2023/02/21 11:34:28;;;;;;;18.53;12.10;;;;;;;;;;4982574;28;20447;-83
2023/02/21 11:37:01;;;;;;;18.60;11.93;;;;;;;;;;4970805;28;20426;-82
2023/02/21 11:39:33;;;;;;;14.73;10.37;;;;;;;;;;4985503;28;20476;-82
2023/02/21 11:42:03;;;;;;;19.10;11.33;;;;;;;;;;4967011;28;20437;-82
2023/02/21 11:44:30;;;;;;;24.27;13.20;;;;;;;;;;4968271;28;20478;-80
2023/02/21 11:47:18;;;;;;;18.83;10.37;;;;;;;;;;4993108;28;20521;-83
2023/02/21 11:50:00;;;;;;;12.50;9.60;;;;;;;;;;4964060;28;20927;-83
2023/02/21 11:52:31;;;;;;;11.33;9.17;;;;;;;;;;4986062;28;20436;-83
2023/02/21 11:54:57;;;;;;;12.90;9.23;;;;;;;;;;4990400;28;20422;-83
2023/02/21 11:57:40;;;;;;;13.20;10.40;;;;;;;;;;4991679;28;20457;-85
2023/02/21 12:00:18;;;;;;;18.25;11.52;;;;;;;;;;4985826;28;20488;-84
2023/02/21 12:02:49;;;;;;;16.13;10.13;;;;;;;;;;4994573;28;20184;-80
2023/02/21 12:05:15;;;;;;;16.20;10.10;;;;;;;;;;4992136;28;20439;-85
2023/02/21 12:08:00;;;;;;;19.53;11.57;;;;;;;;;;4994074;28;20485;-86
2023/02/21 12:10:49;;;;;;;16.10;11.13;;;;;;;;;;4983111;28;20576;-84
2023/02/21 12:13:25;;;;;;;20.00;12.13;;;;;;;;;;4976114;28;20845;-82
2023/02/21 12:15:53;;;;;;;15.80;11.90;;;;;;;;;;4980901;28;20507;-83
2023/02/21 12:18:25;;;;;;;12.63;10.17;;;;;;;;;;4976344;28;20798;-82
2023/02/21 12:21:05;;;;;;;18.20;11.90;;;;;;;;;;4973206;28;20446;-86
2023/02/21 12:24:04;;;;;;;18.47;11.53;;;;;;;;;;4956567;28;20582;-85
2023/02/21 12:26:34;;;;;;;31.50;14.97;;;;;;;;;;4937587;28;20441;-85
2023/02/21 12:29:00;;;;;;;21.33;11.43;;;;;;;;;;4972075;28;20445;-84
2023/02/21 12:31:36;;;;;;;24.17;14.43;;;;;;;;;;4974578;28;20429;-83
2023/02/21 12:34:02;;;;;;;24.00;15.67;;;;;;;;;;4969534;28;20437;-84
2023/02/21 12:36:37;;;;;;;24.77;16.30;;;;;;;;;;5006804;28;20433;-82
2023/02/21 12:39:06;;;;;;;22.13;15.30;;;;;;;;;;4984515;28;20813;-83
2023/02/21 12:41:38;;;;;;;25.17;15.97;;;;;;;;;;4986352;28;20494;-83
2023/02/21 12:44:12;;;;;;;25.13;16.00;;;;;;;;;;4986825;28;20434;-84
2023/02/21 12:46:40;;;;;;;28.27;15.93;;;;;;;;;;4976474;28;20457;-82
2023/02/21 12:49:26;;;;;;;28.10;16.20;;;;;;;;;;4976267;28;20421;-83
2023/02/21 12:51:58;;;;;;;24.33;15.87;;;;;;;;;;4952163;28;20437;-82
2023/02/21 12:54:36;;;;;;;24.63;14.50;;;;;;;;;;4977457;28;20437;-83
2023/02/21 12:57:04;;;;;;;25.30;15.63;;;;;;;;;;4972095;28;20486;-82
2023/02/21 12:59:36;;;;;;;28.37;17.63;;;;;;;;;;4978905;28;20453;-82
2023/02/21 13:02:26;;;;;;;25.07;15.23;;;;;;;;;;4956741;28;20453;-83
2023/02/21 13:04:51;;;;;;;29.53;16.77;;;;;;;;;;4936023;28;20438;-82
2023/02/21 13:07:24;;;;;;;30.10;16.47;;;;;;;;;;4949322;28;20460;-84
2023/02/21 13:09:56;;;;;;;29.00;16.47;;;;;;;;;;4957567;28;20448;-84
2023/02/21 13:12:32;;;;;;;28.90;16.20;;;;;;;;;;4978723;28;20836;-84
2023/02/21 13:15:13;;;;;;;29.83;16.30;;;;;;;;;;4984755;28;20461;-83
2023/02/21 13:17:40;;;;;;;25.00;17.10;;;;;;;;;;4984348;28;20484;-83
2023/02/21 13:20:08;;;;;;;36.73;18.00;;;;;;;;;;4993922;28;20440;-81
2023/02/21 13:25:38;;;;;;;32.27;19.60;;;;;;;;;;4979052;28;20980;-80
2023/02/21 13:28:23;;;;;;;35.07;20.57;;;;;;;;;;4977915;28;20437;-83
2023/02/21 13:30:53;;;;;;;32.80;18.97;;;;;;;;;;4970754;28;20932;-82
2023/02/21 13:33:24;;;;;;;29.10;16.80;;;;;;;;;;4949571;28;20437;-83
2023/02/21 13:35:50;;;;;;;31.23;18.73;;;;;;;;;;4966204;28;20437;-82
2023/02/21 13:38:18;;;;;;;41.70;18.90;;;;;;;;;;4967023;28;20465;-81
2023/02/21 13:41:01;;;;;;;29.67;18.27;;;;;;;;;;4950998;28;20833;-82
2023/02/21 13:43:29;;;;;;;31.77;16.10;;;;;;;;;;4966465;28;20496;-83
2023/02/21 13:46:18;;;;;;;33.80;18.70;;;;;;;;;;4967316;28;20484;-81
2023/02/21 13:48:44;;;;;;;42.37;18.47;;;;;;;;;;4942083;28;20949;-81
2023/02/21 13:51:30;;;;;;;29.37;16.27;;;;;;;;;;4963731;28;20445;-81
2023/02/21 13:54:08;;;;;;;34.17;18.03;;;;;;;;;;4948342;28;20509;-83
2023/02/21 13:56:43;;;;;;;37.03;21.13;;;;;;;;;;4967485;28;20433;-83
2023/02/21 13:59:31;;;;;;;32.87;17.57;;;;;;;;;;4967351;28;20514;-82
2023/02/21 14:02:16;;;;;;;34.90;18.77;;;;;;;;;;4964547;28;20438;-80
2023/02/21 14:04:55;;;;;;;33.87;19.20;;;;;;;;;;4944575;28;20436;-80
2023/02/21 14:07:39;;;;;;;30.10;15.80;;;;;;;;;;4965581;28;20409;-81
2023/02/21 14:10:14;;;;;;;35.00;17.10;;;;;;;;;;4959088;28;20472;-79
2023/02/21 14:12:43;;;;;;;35.17;18.60;;;;;;;;;;4965792;28;20769;-80
2023/02/21 14:15:15;;;;;;;37.13;18.47;;;;;;;;;;4947169;28;20923;-81
2023/02/21 14:17:42;;;;;;;40.27;19.20;;;;;;;;;;4973365;28;20468;-79
2023/02/21 14:20:15;;;;;;;29.63;16.83;;;;;;;;;;4968464;28;21020;-78
2023/02/21 14:22:41;;;;;;;37.93;17.60;;;;;;;;;;4965843;28;20461;-80
2023/02/21 14:25:27;;;;;;;39.23;18.77;;;;;;;;;;4962939;28;20445;-83
2023/02/21 14:27:53;;;;;;;36.67;19.70;;;;;;;;;;4972600;28;20824;-81
2023/02/21 14:30:25;;;;;;;39.27;18.87;;;;;;;;;;4952515;28;20536;-81
2023/02/21 14:32:53;;;;;;;33.93;17.10;;;;;;;;;;4971116;28;20799;-80
2023/02/21 14:35:19;;;;;;;40.63;20.30;;;;;;;;;;4974359;28;20448;-80
2023/02/21 14:37:59;;;;;;;43.13;20.33;;;;;;;;;;4976604;28;20464;-80
2023/02/21 14:40:28;;;;;;;41.37;20.60;;;;;;;;;;4976795;28;20441;-80
2023/02/21 14:43:12;;;;;;;42.47;19.10;;;;;;;;;;4970218;28;20833;-80
2023/02/21 14:45:59;;;;;;;38.80;19.37;;;;;;;;;;4975574;28;20451;-83
2023/02/21 14:48:41;;;;;;;42.47;21.00;;;;;;;;;;4951953;28;21019;-79
2023/02/21 14:51:24;;;;;;;40.90;20.30;;;;;;;;;;4968883;28;20740;-80
2023/02/21 14:54:09;;;;;;;39.33;22.17;;;;;;;;;;4970072;28;20425;-81
2023/02/21 14:56:35;;;;;;;50.10;21.80;;;;;;;;;;4973996;28;20483;-79
2023/02/21 14:59:01;;;;;;;50.13;22.07;;;;;;;;;;4972730;28;20460;-82
2023/02/21 15:01:39;;;;;;;45.87;23.17;;;;;;;;;;4971971;28;20572;-80
2023/02/21 15:04:17;;;;;;;44.47;22.20;;;;;;;;;;4971244;28;20520;-81
2023/02/21 15:06:50;;;;;;;44.67;22.20;;;;;;;;;;4971026;28;20449;-80
2023/02/21 15:09:18;;;;;;;47.37;21.87;;;;;;;;;;4967315;28;20417;-81
2023/02/21 15:11:45;;;;;;;43.13;21.77;;;;;;;;;;4971261;28;20457;-81
2023/02/21 15:14:21;;;;;;;47.00;22.00;;;;;;;;;;4971585;28;20432;-82
2023/02/21 15:16:49;;;;;;;48.57;22.90;;;;;;;;;;4967363;28;20449;-81
2023/02/21 15:19:24;;;;;;;52.30;21.90;;;;;;;;;;4951428;28;20469;-78
2023/02/21 15:21:50;;;;;;;52.70;24.20;;;;;;;;;;4950368;28;20467;-82
2023/02/21 15:24:16;;;;;;;44.40;19.27;;;;;;;;;;4969804;28;20429;-81
2023/02/21 15:26:42;;;;;;;46.03;21.53;;;;;;;;;;4952452;28;21006;-84
2023/02/21 15:29:13;;;;;;;44.70;21.60;;;;;;;;;;4959296;28;20802;-84
2023/02/21 15:31:40;;;;;;;48.40;23.37;;;;;;;;;;4957542;28;20850;-83
2023/02/21 15:34:15;;;;;;;39.03;21.80;;;;;;;;;;4975308;28;20434;-83
2023/02/21 15:36:41;;;;;;;46.20;21.77;;;;;;;;;;4970327;28;20447;-82
2023/02/21 15:39:15;;;;;;;47.20;21.83;;;;;;;;;;4976037;28;20501;-83
2023/02/21 15:41:44;;;;;;;44.57;21.30;;;;;;;;;;4977468;28;20505;-82
2023/02/21 15:44:16;;;;;;;51.63;23.00;;;;;;;;;;4961966;28;20845;-86
2023/02/21 15:46:43;;;;;;;39.53;20.83;;;;;;;;;;4970863;28;20614;-81
2023/02/21 15:49:14;;;;;;;46.73;21.47;;;;;;;;;;4968367;28;20472;-82
2023/02/21 15:51:40;;;;;;;49.70;23.20;;;;;;;;;;4968837;28;20440;-85
2023/02/21 15:54:09;;;;;;;44.00;20.87;;;;;;;;;;4978728;28;20414;-84
2023/02/21 15:56:35;;;;;;;45.43;21.60;;;;;;;;;;4976165;28;20436;-86
2023/02/21 15:59:08;;;;;;;46.20;23.17;;;;;;;;;;4974334;28;20466;-84
2023/02/21 16:01:34;;;;;;;42.93;21.77;;;;;;;;;;4970965;28;20472;-86
2023/02/21 16:04:16;;;;;;;42.17;20.70;;;;;;;;;;4974399;28;20887;-83
2023/02/21 16:06:47;;;;;;;50.43;22.70;;;;;;;;;;4969768;28;20430;-83
2023/02/21 16:09:25;;;;;;;50.93;25.43;;;;;;;;;;4967252;28;20532;-85
2023/02/21 16:12:18;;;;;;;48.43;22.90;;;;;;;;;;4948992;28;21017;-84
2023/02/21 16:14:44;;;;;;;46.40;20.37;;;;;;;;;;4960486;28;20767;-86
2023/02/21 16:17:20;;;;;;;52.00;21.67;;;;;;;;;;4969915;28;20445;-83
2023/02/21 16:19:51;;;;;;;46.30;18.50;;;;;;;;;;4972521;28;20446;-83
2023/02/21 16:22:26;;;;;;;43.53;20.10;;;;;;;;;;4976719;28;20472;-81
2023/02/21 16:25:11;;;;;;;39.53;20.47;;;;;;;;;;4980209;28;20432;-81
2023/02/21 16:27:41;;;;;;;49.33;23.10;;;;;;;;;;4959671;28;20973;-82
2023/02/21 16:30:14;;;;;;;44.00;21.47;;;;;;;;;;4966004;28;20948;-82
2023/02/21 16:32:42;;;;;;;48.77;23.03;;;;;;;;;;4961706;28;20485;-82
2023/02/21 16:35:12;;;;;;;44.70;22.67;;;;;;;;;;4968165;28;20454;-81
2023/02/21 16:37:38;;;;;;;49.47;23.77;;;;;;;;;;4965568;28;20453;-83
2023/02/21 16:40:11;;;;;;;58.03;24.27;;;;;;;;;;4975213;28;20424;-82
2023/02/21 16:42:37;;;;;;;52.53;22.20;;;;;;;;;;4975143;28;20417;-80
2023/02/21 16:45:03;;;;;;;44.07;22.33;;;;;;;;;;4983260;28;20471;-83
2023/02/21 16:47:30;;;;;;;46.33;22.63;;;;;;;;;;4980546;28;20438;-83
2023/02/21 16:49:57;;;;;;;57.60;24.97;;;;;;;;;;4968532;28;20429;-80
2023/02/21 16:52:23;;;;;;;46.00;22.70;;;;;;;;;;4954338;28;20539;-84
2023/02/21 16:54:52;;;;;;;54.47;24.43;;;;;;;;;;4959116;28;21107;-78